sensor_id;sensor_type;location;lat;lon;timestamp;P1;durP1;ratioP1;P2;durP2;ratioP2
4744;SDS011;2386;42.138;24.746;2023-07-31T00:00:06;213.67;;;197.83;;
4744;SDS011;2386;42.138;24.746;2023-07-31T00:02:34;167.07;;;155.13;;
4744;SDS011;2386;42.138;24.746;2023-07-31T00:04:59;196.07;;;181.97;;
4744;SDS011;2386;42.138;24.746;2023-07-31T00:07:25;188.23;;;173.87;;
4744;SDS011;2386;42.138;24.746;2023-07-31T00:09:51;169.47;;;157.50;;
4744;SDS011;2386;42.138;24.746;2023-07-31T00:12:16;182.13;;;169.33;;
4744;SDS011;2386;42.138;24.746;2023-07-31T00:14:41;189.27;;;175.73;;
4744;SDS011;2386;42.138;24.746;2023-07-31T00:17:07;153.80;;;143.30;;
4744;SDS011;2386;42.138;24.746;2023-07-31T00:19:32;150.57;;;139.67;;
4744;SDS011;2386;42.138;24.746;2023-07-31T00:21:58;154.60;;;143.87;;
4744;SDS011;2386;42.138;24.746;2023-07-31T00:24:23;142.73;;;132.63;;
4744;SDS011;2386;42.138;24.746;2023-07-31T00:26:48;139.90;;;130.07;;
4744;SDS011;2386;42.138;24.746;2023-07-31T00:29:14;115.27;;;107.17;;
4744;SDS011;2386;42.138;24.746;2023-07-31T00:31:39;119.80;;;110.90;;
4744;SDS011;2386;42.138;24.746;2023-07-31T00:34:04;110.70;;;103.03;;
4744;SDS011;2386;42.138;24.746;2023-07-31T00:36:30;138.87;;;128.80;;
4744;SDS011;2386;42.138;24.746;2023-07-31T00:38:55;138.73;;;128.80;;
4744;SDS011;2386;42.138;24.746;2023-07-31T00:41:20;111.97;;;103.57;;
4744;SDS011;2386;42.138;24.746;2023-07-31T00:43:46;118.33;;;110.03;;
4744;SDS011;2386;42.138;24.746;2023-07-31T00:46:11;148.23;;;137.63;;
4744;SDS011;2386;42.138;24.746;2023-07-31T00:48:37;115.67;;;107.33;;
4744;SDS011;2386;42.138;24.746;2023-07-31T00:51:03;153.63;;;142.33;;
4744;SDS011;2386;42.138;24.746;2023-07-31T00:53:28;156.90;;;145.03;;
4744;SDS011;2386;42.138;24.746;2023-07-31T00:55:54;152.97;;;142.13;;
4744;SDS011;2386;42.138;24.746;2023-07-31T00:58:19;141.13;;;131.30;;
4744;SDS011;2386;42.138;24.746;2023-07-31T01:00:45;180.37;;;166.87;;
4744;SDS011;2386;42.138;24.746;2023-07-31T01:03:10;151.70;;;140.77;;
4744;SDS011;2386;42.138;24.746;2023-07-31T01:05:39;148.10;;;137.07;;
4744;SDS011;2386;42.138;24.746;2023-07-31T01:10:55;199.47;;;184.90;;
4744;SDS011;2386;42.138;24.746;2023-07-31T01:13:35;68.53;;;62.73;;
4744;SDS011;2386;42.138;24.746;2023-07-31T01:16:01;43.77;;;40.07;;
4744;SDS011;2386;42.138;24.746;2023-07-31T01:18:26;28.63;;;26.03;;
4744;SDS011;2386;42.138;24.746;2023-07-31T01:20:54;38.07;;;34.63;;
4744;SDS011;2386;42.138;24.746;2023-07-31T01:26:12;29.57;;;20.80;;
4744;SDS011;2386;42.138;24.746;2023-07-31T01:31:18;24.60;;;21.33;;
4744;SDS011;2386;42.138;24.746;2023-07-31T01:33:46;32.87;;;30.10;;
4744;SDS011;2386;42.138;24.746;2023-07-31T01:36:12;31.83;;;26.23;;
4744;SDS011;2386;42.138;24.746;2023-07-31T01:38:37;37.53;;;34.27;;
4744;SDS011;2386;42.138;24.746;2023-07-31T01:41:02;34.97;;;24.10;;
4744;SDS011;2386;42.138;24.746;2023-07-31T01:43:28;33.80;;;30.27;;
4744;SDS011;2386;42.138;24.746;2023-07-31T01:45:53;41.27;;;37.43;;
4744;SDS011;2386;42.138;24.746;2023-07-31T01:48:19;34.37;;;31.17;;
4744;SDS011;2386;42.138;24.746;2023-07-31T01:50:44;47.80;;;43.00;;
4744;SDS011;2386;42.138;24.746;2023-07-31T01:53:09;41.23;;;36.10;;
4744;SDS011;2386;42.138;24.746;2023-07-31T01:55:37;35.43;;;32.33;;
4744;SDS011;2386;42.138;24.746;2023-07-31T01:58:02;52.70;;;48.23;;
4744;SDS011;2386;42.138;24.746;2023-07-31T02:00:27;42.67;;;38.93;;
4744;SDS011;2386;42.138;24.746;2023-07-31T02:02:53;30.27;;;27.47;;
4744;SDS011;2386;42.138;24.746;2023-07-31T02:05:18;56.17;;;50.50;;
4744;SDS011;2386;42.138;24.746;2023-07-31T02:07:43;62.53;;;50.33;;
4744;SDS011;2386;42.138;24.746;2023-07-31T02:10:09;65.00;;;58.97;;
4744;SDS011;2386;42.138;24.746;2023-07-31T02:12:34;55.33;;;50.13;;
4744;SDS011;2386;42.138;24.746;2023-07-31T02:15:00;69.90;;;63.50;;
4744;SDS011;2386;42.138;24.746;2023-07-31T02:17:25;54.97;;;46.10;;
4744;SDS011;2386;42.138;24.746;2023-07-31T02:22:42;42.27;;;38.17;;
4744;SDS011;2386;42.138;24.746;2023-07-31T02:25:07;72.23;;;64.73;;
4744;SDS011;2386;42.138;24.746;2023-07-31T02:27:33;55.87;;;51.13;;
4744;SDS011;2386;42.138;24.746;2023-07-31T02:29:58;55.10;;;50.40;;
4744;SDS011;2386;42.138;24.746;2023-07-31T02:32:24;53.23;;;49.13;;
4744;SDS011;2386;42.138;24.746;2023-07-31T02:38:08;71.50;;;65.20;;
4744;SDS011;2386;42.138;24.746;2023-07-31T02:40:33;74.23;;;67.23;;
4744;SDS011;2386;42.138;24.746;2023-07-31T02:42:58;72.53;;;66.83;;
4744;SDS011;2386;42.138;24.746;2023-07-31T02:45:24;66.93;;;61.73;;
4744;SDS011;2386;42.138;24.746;2023-07-31T02:47:49;64.43;;;59.83;;
4744;SDS011;2386;42.138;24.746;2023-07-31T02:50:15;63.37;;;58.43;;
4744;SDS011;2386;42.138;24.746;2023-07-31T02:52:40;60.83;;;55.97;;
4744;SDS011;2386;42.138;24.746;2023-07-31T02:55:05;86.87;;;80.17;;
4744;SDS011;2386;42.138;24.746;2023-07-31T02:57:31;69.00;;;63.53;;
4744;SDS011;2386;42.138;24.746;2023-07-31T02:59:57;89.03;;;82.13;;
4744;SDS011;2386;42.138;24.746;2023-07-31T03:02:22;72.20;;;67.00;;
4744;SDS011;2386;42.138;24.746;2023-07-31T03:04:47;73.43;;;68.03;;
4744;SDS011;2386;42.138;24.746;2023-07-31T03:07:13;67.50;;;61.97;;
4744;SDS011;2386;42.138;24.746;2023-07-31T03:09:38;68.87;;;63.73;;
4744;SDS011;2386;42.138;24.746;2023-07-31T03:12:03;70.07;;;64.73;;
4744;SDS011;2386;42.138;24.746;2023-07-31T03:14:29;73.20;;;67.97;;
4744;SDS011;2386;42.138;24.746;2023-07-31T03:16:54;77.43;;;71.20;;
4744;SDS011;2386;42.138;24.746;2023-07-31T03:19:20;68.17;;;62.57;;
4744;SDS011;2386;42.138;24.746;2023-07-31T03:21:45;71.27;;;65.63;;
4744;SDS011;2386;42.138;24.746;2023-07-31T03:24:11;73.20;;;67.50;;
4744;SDS011;2386;42.138;24.746;2023-07-31T03:26:37;55.87;;;50.93;;
4744;SDS011;2386;42.138;24.746;2023-07-31T03:29:03;58.40;;;53.73;;
4744;SDS011;2386;42.138;24.746;2023-07-31T03:31:28;58.10;;;53.30;;
4744;SDS011;2386;42.138;24.746;2023-07-31T03:33:54;61.60;;;56.40;;
4744;SDS011;2386;42.138;24.746;2023-07-31T03:39:13;80.77;;;74.77;;
4744;SDS011;2386;42.138;24.746;2023-07-31T03:41:39;43.43;;;39.73;;
4744;SDS011;2386;42.138;24.746;2023-07-31T03:44:04;70.87;;;65.30;;
4744;SDS011;2386;42.138;24.746;2023-07-31T03:46:29;46.03;;;42.43;;
4744;SDS011;2386;42.138;24.746;2023-07-31T03:48:58;50.43;;;46.13;;
4744;SDS011;2386;42.138;24.746;2023-07-31T03:51:46;78.30;;;71.20;;
4744;SDS011;2386;42.138;24.746;2023-07-31T03:54:12;69.17;;;62.57;;
4744;SDS011;2386;42.138;24.746;2023-07-31T03:56:38;58.97;;;52.60;;
4744;SDS011;2386;42.138;24.746;2023-07-31T03:59:04;61.87;;;55.60;;
4744;SDS011;2386;42.138;24.746;2023-07-31T04:01:29;61.33;;;54.83;;
4744;SDS011;2386;42.138;24.746;2023-07-31T04:03:54;56.37;;;47.60;;
4744;SDS011;2386;42.138;24.746;2023-07-31T04:06:20;56.30;;;50.93;;
4744;SDS011;2386;42.138;24.746;2023-07-31T04:08:45;74.30;;;67.30;;
4744;SDS011;2386;42.138;24.746;2023-07-31T04:11:11;91.17;;;83.77;;
4744;SDS011;2386;42.138;24.746;2023-07-31T04:13:37;83.47;;;75.43;;
4744;SDS011;2386;42.138;24.746;2023-07-31T04:16:02;78.93;;;71.67;;
4744;SDS011;2386;42.138;24.746;2023-07-31T04:18:28;79.37;;;72.73;;
4744;SDS011;2386;42.138;24.746;2023-07-31T04:20:55;69.00;;;61.67;;
4744;SDS011;2386;42.138;24.746;2023-07-31T04:23:21;86.03;;;78.23;;
4744;SDS011;2386;42.138;24.746;2023-07-31T04:25:47;67.03;;;60.37;;
4744;SDS011;2386;42.138;24.746;2023-07-31T04:28:12;64.30;;;58.57;;
4744;SDS011;2386;42.138;24.746;2023-07-31T04:30:38;66.93;;;59.97;;
4744;SDS011;2386;42.138;24.746;2023-07-31T04:33:04;43.73;;;37.43;;
4744;SDS011;2386;42.138;24.746;2023-07-31T04:35:29;63.97;;;58.30;;
4744;SDS011;2386;42.138;24.746;2023-07-31T04:37:54;41.80;;;35.30;;
4744;SDS011;2386;42.138;24.746;2023-07-31T04:40:20;47.57;;;37.67;;
4744;SDS011;2386;42.138;24.746;2023-07-31T04:42:46;39.13;;;35.03;;
4744;SDS011;2386;42.138;24.746;2023-07-31T04:45:11;52.50;;;41.70;;
4744;SDS011;2386;42.138;24.746;2023-07-31T04:47:36;62.50;;;46.53;;
4744;SDS011;2386;42.138;24.746;2023-07-31T04:50:02;59.30;;;53.00;;
4744;SDS011;2386;42.138;24.746;2023-07-31T04:52:27;50.83;;;45.43;;
4744;SDS011;2386;42.138;24.746;2023-07-31T04:54:53;69.87;;;62.17;;
4744;SDS011;2386;42.138;24.746;2023-07-31T04:57:18;44.57;;;40.13;;
4744;SDS011;2386;42.138;24.746;2023-07-31T04:59:43;57.70;;;52.10;;
4744;SDS011;2386;42.138;24.746;2023-07-31T05:02:11;48.87;;;44.23;;
4744;SDS011;2386;42.138;24.746;2023-07-31T05:04:38;52.43;;;47.13;;
4744;SDS011;2386;42.138;24.746;2023-07-31T05:07:04;41.90;;;38.20;;
4744;SDS011;2386;42.138;24.746;2023-07-31T05:09:30;36.07;;;26.33;;
4744;SDS011;2386;42.138;24.746;2023-07-31T05:11:56;48.00;;;29.10;;
4744;SDS011;2386;42.138;24.746;2023-07-31T05:14:22;36.33;;;25.90;;
4744;SDS011;2386;42.138;24.746;2023-07-31T05:16:48;33.67;;;30.67;;
4744;SDS011;2386;42.138;24.746;2023-07-31T05:19:13;27.30;;;24.70;;
4744;SDS011;2386;42.138;24.746;2023-07-31T05:21:39;27.23;;;21.73;;
4744;SDS011;2386;42.138;24.746;2023-07-31T05:24:05;27.93;;;20.90;;
4744;SDS011;2386;42.138;24.746;2023-07-31T05:26:33;32.00;;;27.63;;
4744;SDS011;2386;42.138;24.746;2023-07-31T05:28:58;32.77;;;28.43;;
4744;SDS011;2386;42.138;24.746;2023-07-31T05:31:24;32.30;;;22.63;;
4744;SDS011;2386;42.138;24.746;2023-07-31T05:33:49;29.60;;;26.10;;
4744;SDS011;2386;42.138;24.746;2023-07-31T05:36:15;33.43;;;30.43;;
4744;SDS011;2386;42.138;24.746;2023-07-31T05:38:41;29.23;;;24.73;;
4744;SDS011;2386;42.138;24.746;2023-07-31T05:41:09;34.67;;;31.33;;
4744;SDS011;2386;42.138;24.746;2023-07-31T05:43:34;36.37;;;23.93;;
4744;SDS011;2386;42.138;24.746;2023-07-31T05:46:00;32.57;;;29.03;;
4744;SDS011;2386;42.138;24.746;2023-07-31T05:48:26;40.03;;;31.70;;
4744;SDS011;2386;42.138;24.746;2023-07-31T05:50:52;35.77;;;26.00;;
4744;SDS011;2386;42.138;24.746;2023-07-31T05:53:17;47.03;;;40.53;;
4744;SDS011;2386;42.138;24.746;2023-07-31T05:55:42;42.63;;;37.50;;
4744;SDS011;2386;42.138;24.746;2023-07-31T05:58:08;29.60;;;26.37;;
4744;SDS011;2386;42.138;24.746;2023-07-31T06:00:33;40.43;;;36.37;;
4744;SDS011;2386;42.138;24.746;2023-07-31T06:02:59;33.63;;;30.13;;
4744;SDS011;2386;42.138;24.746;2023-07-31T06:05:24;34.00;;;30.80;;
4744;SDS011;2386;42.138;24.746;2023-07-31T06:08:06;37.23;;;28.80;;
4744;SDS011;2386;42.138;24.746;2023-07-31T06:10:31;36.37;;;26.63;;
4744;SDS011;2386;42.138;24.746;2023-07-31T06:12:57;45.77;;;30.03;;
4744;SDS011;2386;42.138;24.746;2023-07-31T06:15:22;37.13;;;33.43;;
4744;SDS011;2386;42.138;24.746;2023-07-31T06:17:48;44.10;;;39.87;;
4744;SDS011;2386;42.138;24.746;2023-07-31T06:20:13;86.27;;;78.17;;
4744;SDS011;2386;42.138;24.746;2023-07-31T06:22:38;123.63;;;113.17;;
4744;SDS011;2386;42.138;24.746;2023-07-31T06:25:04;94.87;;;86.53;;
4744;SDS011;2386;42.138;24.746;2023-07-31T06:27:30;113.40;;;105.43;;
4744;SDS011;2386;42.138;24.746;2023-07-31T06:29:56;66.23;;;60.33;;
4744;SDS011;2386;42.138;24.746;2023-07-31T06:32:21;64.07;;;59.07;;
4744;SDS011;2386;42.138;24.746;2023-07-31T06:34:46;62.93;;;56.73;;
4744;SDS011;2386;42.138;24.746;2023-07-31T06:37:12;58.27;;;53.07;;
4744;SDS011;2386;42.138;24.746;2023-07-31T06:39:38;74.30;;;66.20;;
4744;SDS011;2386;42.138;24.746;2023-07-31T06:42:03;83.97;;;75.43;;
4744;SDS011;2386;42.138;24.746;2023-07-31T06:44:29;104.57;;;95.57;;
4744;SDS011;2386;42.138;24.746;2023-07-31T06:46:54;119.27;;;108.43;;
4744;SDS011;2386;42.138;24.746;2023-07-31T06:49:20;136.07;;;123.10;;
4744;SDS011;2386;42.138;24.746;2023-07-31T06:51:45;142.37;;;128.93;;
4744;SDS011;2386;42.138;24.746;2023-07-31T06:54:10;168.30;;;151.17;;
4744;SDS011;2386;42.138;24.746;2023-07-31T06:56:36;164.47;;;150.27;;
4744;SDS011;2386;42.138;24.746;2023-07-31T06:59:01;167.00;;;152.60;;
4744;SDS011;2386;42.138;24.746;2023-07-31T07:01:28;158.97;;;146.37;;
4744;SDS011;2386;42.138;24.746;2023-07-31T07:03:53;180.43;;;165.47;;
4744;SDS011;2386;42.138;24.746;2023-07-31T07:06:19;191.20;;;175.83;;
4744;SDS011;2386;42.138;24.746;2023-07-31T07:08:44;210.67;;;195.07;;
4744;SDS011;2386;42.138;24.746;2023-07-31T07:11:11;146.77;;;135.10;;
4744;SDS011;2386;42.138;24.746;2023-07-31T07:13:37;133.93;;;122.47;;
4744;SDS011;2386;42.138;24.746;2023-07-31T07:16:02;194.40;;;179.13;;
4744;SDS011;2386;42.138;24.746;2023-07-31T07:18:27;187.00;;;172.33;;
4744;SDS011;2386;42.138;24.746;2023-07-31T07:20:53;152.50;;;139.93;;
4744;SDS011;2386;42.138;24.746;2023-07-31T07:23:19;147.67;;;134.67;;
4744;SDS011;2386;42.138;24.746;2023-07-31T07:25:45;99.40;;;89.10;;
4744;SDS011;2386;42.138;24.746;2023-07-31T07:28:12;151.90;;;139.97;;
4744;SDS011;2386;42.138;24.746;2023-07-31T07:30:38;122.20;;;111.97;;
4744;SDS011;2386;42.138;24.746;2023-07-31T07:33:04;128.57;;;116.77;;
4744;SDS011;2386;42.138;24.746;2023-07-31T07:35:30;129.83;;;118.70;;
4744;SDS011;2386;42.138;24.746;2023-07-31T07:37:55;101.03;;;92.23;;
4744;SDS011;2386;42.138;24.746;2023-07-31T07:40:21;94.37;;;85.83;;
4744;SDS011;2386;42.138;24.746;2023-07-31T07:42:47;103.33;;;92.70;;
4744;SDS011;2386;42.138;24.746;2023-07-31T07:45:12;104.33;;;95.57;;
4744;SDS011;2386;42.138;24.746;2023-07-31T07:47:38;104.90;;;94.30;;
4744;SDS011;2386;42.138;24.746;2023-07-31T07:50:05;113.40;;;103.50;;
4744;SDS011;2386;42.138;24.746;2023-07-31T07:52:31;118.57;;;107.80;;
4744;SDS011;2386;42.138;24.746;2023-07-31T07:54:57;101.23;;;90.37;;
4744;SDS011;2386;42.138;24.746;2023-07-31T07:57:22;146.33;;;131.90;;
4744;SDS011;2386;42.138;24.746;2023-07-31T07:59:47;110.10;;;100.07;;
4744;SDS011;2386;42.138;24.746;2023-07-31T08:02:13;169.13;;;154.20;;
4744;SDS011;2386;42.138;24.746;2023-07-31T08:04:38;87.30;;;78.07;;
4744;SDS011;2386;42.138;24.746;2023-07-31T08:07:04;109.70;;;99.47;;
4744;SDS011;2386;42.138;24.746;2023-07-31T08:09:29;113.03;;;101.93;;
4744;SDS011;2386;42.138;24.746;2023-07-31T08:11:54;126.87;;;116.33;;
4744;SDS011;2386;42.138;24.746;2023-07-31T08:14:22;145.57;;;133.80;;
4744;SDS011;2386;42.138;24.746;2023-07-31T08:16:47;169.07;;;153.37;;
4744;SDS011;2386;42.138;24.746;2023-07-31T08:19:12;138.23;;;124.53;;
4744;SDS011;2386;42.138;24.746;2023-07-31T08:21:38;136.87;;;125.23;;
4744;SDS011;2386;42.138;24.746;2023-07-31T08:24:03;169.73;;;156.83;;
4744;SDS011;2386;42.138;24.746;2023-07-31T08:26:29;46.83;;;41.80;;
4744;SDS011;2386;42.138;24.746;2023-07-31T08:28:54;134.13;;;124.43;;
4744;SDS011;2386;42.138;24.746;2023-07-31T08:31:19;80.30;;;73.10;;
4744;SDS011;2386;42.138;24.746;2023-07-31T08:33:45;81.07;;;73.77;;
4744;SDS011;2386;42.138;24.746;2023-07-31T08:36:10;204.47;;;186.97;;
4744;SDS011;2386;42.138;24.746;2023-07-31T08:38:35;176.00;;;162.53;;
4744;SDS011;2386;42.138;24.746;2023-07-31T08:41:02;120.53;;;109.63;;
4744;SDS011;2386;42.138;24.746;2023-07-31T08:43:29;152.00;;;137.50;;
4744;SDS011;2386;42.138;24.746;2023-07-31T08:45:55;117.47;;;106.57;;
4744;SDS011;2386;42.138;24.746;2023-07-31T08:48:22;152.60;;;140.47;;
4744;SDS011;2386;42.138;24.746;2023-07-31T08:50:48;280.30;;;259.00;;
4744;SDS011;2386;42.138;24.746;2023-07-31T08:53:13;90.30;;;81.90;;
4744;SDS011;2386;42.138;24.746;2023-07-31T08:55:39;219.37;;;202.67;;
4744;SDS011;2386;42.138;24.746;2023-07-31T08:58:05;327.93;;;303.47;;
4744;SDS011;2386;42.138;24.746;2023-07-31T09:00:33;294.63;;;272.10;;
4744;SDS011;2386;42.138;24.746;2023-07-31T09:03:04;248.90;;;230.87;;
4744;SDS011;2386;42.138;24.746;2023-07-31T09:05:35;230.77;;;211.20;;
4744;SDS011;2386;42.138;24.746;2023-07-31T09:08:01;253.60;;;232.63;;
4744;SDS011;2386;42.138;24.746;2023-07-31T09:10:29;152.80;;;140.70;;
4744;SDS011;2386;42.138;24.746;2023-07-31T09:12:54;189.73;;;174.87;;
4744;SDS011;2386;42.138;24.746;2023-07-31T09:15:21;235.40;;;216.57;;
4744;SDS011;2386;42.138;24.746;2023-07-31T09:17:46;174.00;;;159.13;;
4744;SDS011;2386;42.138;24.746;2023-07-31T09:20:18;222.10;;;205.30;;
4744;SDS011;2386;42.138;24.746;2023-07-31T09:22:46;184.97;;;170.87;;
4744;SDS011;2386;42.138;24.746;2023-07-31T09:27:56;92.43;;;82.70;;
4744;SDS011;2386;42.138;24.746;2023-07-31T09:30:23;223.43;;;207.83;;
4744;SDS011;2386;42.138;24.746;2023-07-31T09:32:49;196.13;;;180.80;;
4744;SDS011;2386;42.138;24.746;2023-07-31T09:37:53;131.47;;;120.47;;
4744;SDS011;2386;42.138;24.746;2023-07-31T09:40:29;127.50;;;118.20;;
4744;SDS011;2386;42.138;24.746;2023-07-31T09:42:57;170.37;;;155.93;;
4744;SDS011;2386;42.138;24.746;2023-07-31T09:45:24;253.73;;;234.43;;
4744;SDS011;2386;42.138;24.746;2023-07-31T09:47:49;188.50;;;173.17;;
4744;SDS011;2386;42.138;24.746;2023-07-31T09:50:15;183.87;;;169.27;;
4744;SDS011;2386;42.138;24.746;2023-07-31T09:52:43;115.33;;;103.27;;
4744;SDS011;2386;42.138;24.746;2023-07-31T09:55:09;197.73;;;182.57;;
4744;SDS011;2386;42.138;24.746;2023-07-31T09:57:39;202.60;;;185.77;;
4744;SDS011;2386;42.138;24.746;2023-07-31T10:00:07;201.23;;;185.13;;
4744;SDS011;2386;42.138;24.746;2023-07-31T10:02:34;192.23;;;176.47;;
4744;SDS011;2386;42.138;24.746;2023-07-31T10:05:02;302.93;;;279.27;;
4744;SDS011;2386;42.138;24.746;2023-07-31T10:07:28;148.60;;;136.80;;
4744;SDS011;2386;42.138;24.746;2023-07-31T10:09:56;260.60;;;241.37;;
4744;SDS011;2386;42.138;24.746;2023-07-31T10:12:25;159.10;;;146.77;;
4744;SDS011;2386;42.138;24.746;2023-07-31T10:14:53;296.80;;;273.70;;
4744;SDS011;2386;42.138;24.746;2023-07-31T10:17:19;305.27;;;280.67;;
4744;SDS011;2386;42.138;24.746;2023-07-31T10:19:49;367.07;;;337.87;;
4744;SDS011;2386;42.138;24.746;2023-07-31T10:22:15;370.90;;;343.20;;
4744;SDS011;2386;42.138;24.746;2023-07-31T10:24:44;375.67;;;345.33;;
4744;SDS011;2386;42.138;24.746;2023-07-31T10:27:11;202.00;;;186.90;;
4744;SDS011;2386;42.138;24.746;2023-07-31T10:29:37;199.60;;;186.10;;
4744;SDS011;2386;42.138;24.746;2023-07-31T10:32:04;383.37;;;353.80;;
4744;SDS011;2386;42.138;24.746;2023-07-31T10:34:33;218.07;;;203.10;;
4744;SDS011;2386;42.138;24.746;2023-07-31T10:40:01;244.03;;;226.00;;
4744;SDS011;2386;42.138;24.746;2023-07-31T10:42:30;277.93;;;256.70;;
4744;SDS011;2386;42.138;24.746;2023-07-31T10:44:58;298.73;;;277.70;;
4744;SDS011;2386;42.138;24.746;2023-07-31T10:47:25;435.27;;;403.63;;
4744;SDS011;2386;42.138;24.746;2023-07-31T10:49:50;473.33;;;435.40;;
4744;SDS011;2386;42.138;24.746;2023-07-31T10:52:20;268.70;;;248.93;;
4744;SDS011;2386;42.138;24.746;2023-07-31T10:55:12;301.73;;;280.43;;
4744;SDS011;2386;42.138;24.746;2023-07-31T10:58:21;272.60;;;253.83;;
4744;SDS011;2386;42.138;24.746;2023-07-31T11:00:48;256.20;;;238.87;;
4744;SDS011;2386;42.138;24.746;2023-07-31T11:03:15;175.50;;;163.20;;
4744;SDS011;2386;42.138;24.746;2023-07-31T11:08:29;284.70;;;264.10;;
4744;SDS011;2386;42.138;24.746;2023-07-31T11:11:08;269.00;;;249.53;;
4744;SDS011;2386;42.138;24.746;2023-07-31T11:16:12;267.23;;;248.03;;
4744;SDS011;2386;42.138;24.746;2023-07-31T11:18:39;216.77;;;200.30;;
4744;SDS011;2386;42.138;24.746;2023-07-31T11:21:06;254.93;;;237.03;;
4744;SDS011;2386;42.138;24.746;2023-07-31T11:23:32;240.83;;;224.33;;
4744;SDS011;2386;42.138;24.746;2023-07-31T11:26:01;248.70;;;230.90;;
4744;SDS011;2386;42.138;24.746;2023-07-31T11:28:30;216.63;;;201.17;;
4744;SDS011;2386;42.138;24.746;2023-07-31T11:30:58;170.33;;;158.73;;
4744;SDS011;2386;42.138;24.746;2023-07-31T11:33:24;253.73;;;232.60;;
4744;SDS011;2386;42.138;24.746;2023-07-31T11:35:50;128.70;;;118.50;;
4744;SDS011;2386;42.138;24.746;2023-07-31T11:38:25;127.97;;;119.17;;
4744;SDS011;2386;42.138;24.746;2023-07-31T11:41:04;240.53;;;222.57;;
4744;SDS011;2386;42.138;24.746;2023-07-31T11:43:33;199.47;;;184.47;;
4744;SDS011;2386;42.138;24.746;2023-07-31T11:45:59;173.13;;;160.00;;
4744;SDS011;2386;42.138;24.746;2023-07-31T11:48:30;245.13;;;227.47;;
4744;SDS011;2386;42.138;24.746;2023-07-31T11:50:59;232.73;;;215.63;;
4744;SDS011;2386;42.138;24.746;2023-07-31T11:53:33;178.63;;;165.33;;
4744;SDS011;2386;42.138;24.746;2023-07-31T11:56:11;123.83;;;114.50;;
4744;SDS011;2386;42.138;24.746;2023-07-31T11:58:55;142.93;;;132.13;;
4744;SDS011;2386;42.138;24.746;2023-07-31T12:01:23;148.80;;;137.33;;
4744;SDS011;2386;42.138;24.746;2023-07-31T12:03:50;183.83;;;169.90;;
4744;SDS011;2386;42.138;24.746;2023-07-31T12:06:16;224.73;;;208.17;;
4744;SDS011;2386;42.138;24.746;2023-07-31T12:08:41;246.60;;;229.47;;
4744;SDS011;2386;42.138;24.746;2023-07-31T12:11:08;213.73;;;198.60;;
4744;SDS011;2386;42.138;24.746;2023-07-31T12:13:38;291.47;;;271.23;;
4744;SDS011;2386;42.138;24.746;2023-07-31T12:16:04;242.07;;;225.53;;
4744;SDS011;2386;42.138;24.746;2023-07-31T12:18:34;242.33;;;225.70;;
4744;SDS011;2386;42.138;24.746;2023-07-31T12:21:01;233.43;;;216.83;;
4744;SDS011;2386;42.138;24.746;2023-07-31T12:23:32;182.33;;;169.73;;
4744;SDS011;2386;42.138;24.746;2023-07-31T12:26:12;199.25;;;185.52;;
4744;SDS011;2386;42.138;24.746;2023-07-31T12:31:21;177.20;;;164.70;;
4744;SDS011;2386;42.138;24.746;2023-07-31T12:33:48;190.35;;;176.98;;
4744;SDS011;2386;42.138;24.746;2023-07-31T12:36:18;211.55;;;197.00;;
4744;SDS011;2386;42.138;24.746;2023-07-31T12:38:45;218.68;;;203.25;;
4744;SDS011;2386;42.138;24.746;2023-07-31T12:41:11;196.05;;;182.80;;
4744;SDS011;2386;42.138;24.746;2023-07-31T12:43:37;216.55;;;201.70;;
4744;SDS011;2386;42.138;24.746;2023-07-31T12:46:04;186.02;;;173.30;;
4744;SDS011;2386;42.138;24.746;2023-07-31T12:48:29;204.93;;;190.75;;
4744;SDS011;2386;42.138;24.746;2023-07-31T12:50:55;215.45;;;200.57;;
4744;SDS011;2386;42.138;24.746;2023-07-31T12:53:20;234.13;;;217.57;;
4744;SDS011;2386;42.138;24.746;2023-07-31T12:55:46;238.50;;;221.95;;
4744;SDS011;2386;42.138;24.746;2023-07-31T12:58:11;230.90;;;215.00;;
4744;SDS011;2386;42.138;24.746;2023-07-31T13:00:37;250.45;;;233.23;;
4744;SDS011;2386;42.138;24.746;2023-07-31T13:03:02;228.75;;;212.93;;
4744;SDS011;2386;42.138;24.746;2023-07-31T13:05:28;189.57;;;176.80;;
4744;SDS011;2386;42.138;24.746;2023-07-31T13:07:54;143.48;;;133.38;;
4744;SDS011;2386;42.138;24.746;2023-07-31T13:10:22;116.15;;;108.53;;
4744;SDS011;2386;42.138;24.746;2023-07-31T13:12:48;117.53;;;107.83;;
4744;SDS011;2386;42.138;24.746;2023-07-31T13:15:14;116.03;;;107.93;;
4744;SDS011;2386;42.138;24.746;2023-07-31T13:17:39;112.33;;;104.43;;
4744;SDS011;2386;42.138;24.746;2023-07-31T13:20:05;178.47;;;166.03;;
4744;SDS011;2386;42.138;24.746;2023-07-31T13:22:31;133.47;;;124.17;;
4744;SDS011;2386;42.138;24.746;2023-07-31T13:24:56;154.47;;;143.17;;
4744;SDS011;2386;42.138;24.746;2023-07-31T13:27:22;264.67;;;246.27;;
4744;SDS011;2386;42.138;24.746;2023-07-31T13:29:48;278.03;;;258.73;;
4744;SDS011;2386;42.138;24.746;2023-07-31T13:32:15;336.90;;;314.17;;
4744;SDS011;2386;42.138;24.746;2023-07-31T13:34:41;250.07;;;232.90;;
4744;SDS011;2386;42.138;24.746;2023-07-31T13:37:07;241.50;;;224.80;;
4744;SDS011;2386;42.138;24.746;2023-07-31T13:39:32;319.15;;;295.92;;
4744;SDS011;2386;42.138;24.746;2023-07-31T13:41:58;322.98;;;299.25;;
4744;SDS011;2386;42.138;24.746;2023-07-31T13:44:24;261.55;;;242.40;;
4744;SDS011;2386;42.138;24.746;2023-07-31T13:46:49;230.95;;;214.27;;
4744;SDS011;2386;42.138;24.746;2023-07-31T13:49:14;256.98;;;238.20;;
4744;SDS011;2386;42.138;24.746;2023-07-31T13:51:40;310.95;;;288.80;;
4744;SDS011;2386;42.138;24.746;2023-07-31T13:54:05;306.75;;;284.38;;
4744;SDS011;2386;42.138;24.746;2023-07-31T13:56:34;349.52;;;323.67;;
4744;SDS011;2386;42.138;24.746;2023-07-31T13:58:59;344.13;;;318.33;;
4744;SDS011;2386;42.138;24.746;2023-07-31T14:01:26;300.47;;;279.43;;
4744;SDS011;2386;42.138;24.746;2023-07-31T14:03:51;305.47;;;282.17;;
4744;SDS011;2386;42.138;24.746;2023-07-31T14:06:17;374.27;;;348.03;;
4744;SDS011;2386;42.138;24.746;2023-07-31T14:08:42;383.83;;;355.40;;
4744;SDS011;2386;42.138;24.746;2023-07-31T14:11:07;363.63;;;337.70;;
4744;SDS011;2386;42.138;24.746;2023-07-31T14:13:33;323.17;;;300.10;;
4744;SDS011;2386;42.138;24.746;2023-07-31T14:15:58;328.55;;;304.77;;
4744;SDS011;2386;42.138;24.746;2023-07-31T14:18:24;316.38;;;294.15;;
4744;SDS011;2386;42.138;24.746;2023-07-31T14:20:49;293.10;;;272.20;;
4744;SDS011;2386;42.138;24.746;2023-07-31T14:23:14;253.93;;;236.07;;
4744;SDS011;2386;42.138;24.746;2023-07-31T14:25:40;352.93;;;327.00;;
4744;SDS011;2386;42.138;24.746;2023-07-31T14:28:06;375.03;;;348.47;;
4744;SDS011;2386;42.138;24.746;2023-07-31T14:30:31;371.70;;;343.30;;
4744;SDS011;2386;42.138;24.746;2023-07-31T14:32:57;360.35;;;334.17;;
4744;SDS011;2386;42.138;24.746;2023-07-31T14:35:22;363.40;;;335.40;;
4744;SDS011;2386;42.138;24.746;2023-07-31T14:37:48;355.15;;;328.90;;
4744;SDS011;2386;42.138;24.746;2023-07-31T14:40:13;294.77;;;273.83;;
4744;SDS011;2386;42.138;24.746;2023-07-31T14:42:39;327.00;;;303.13;;
4744;SDS011;2386;42.138;24.746;2023-07-31T14:45:05;361.80;;;332.52;;
4744;SDS011;2386;42.138;24.746;2023-07-31T14:47:31;308.23;;;285.95;;